createdAt,value
2019-06-20T00:02:51.798Z,94694.82
2019-06-20T00:07:53.768Z,94698.50
2019-06-20T00:13:00.376Z,94689.70
2019-06-20T00:17:59.320Z,94689.98
2019-06-20T00:23:01.227Z,94685.88
2019-06-20T00:28:03.429Z,94686.53
2019-06-20T00:33:05.360Z,94686.75
2019-06-20T00:38:07.211Z,94693.48
2019-06-20T00:43:17.426Z,94696.26
2019-06-20T00:48:13.017Z,94686.09
2019-06-20T00:53:14.841Z,94688.75
2019-06-20T00:58:16.702Z,94684.77
2019-06-20T01:03:18.518Z,94682.52
2019-06-20T01:08:20.373Z,94681.83
2019-06-20T01:13:33.134Z,94677.83
2019-06-20T01:18:25.969Z,94691.59
2019-06-20T01:23:28.002Z,94687.17
2019-06-20T01:28:30.357Z,94687.03
2019-06-20T01:33:33.046Z,94678.56
2019-06-20T01:38:35.177Z,94683.69
2019-06-20T01:43:50.220Z,94680.31
2019-06-20T01:48:41.414Z,94686.69
2019-06-20T01:53:43.464Z,94679.27
2019-06-20T01:58:46.642Z,94676.61
2019-06-20T02:03:49.046Z,94685.91
2019-06-20T02:08:51.343Z,94686.34
2019-06-20T02:14:06.426Z,94687.81
2019-06-20T02:18:56.946Z,94687.17
2019-06-20T02:23:58.766Z,94691.08
2019-06-20T02:29:00.596Z,94699.17
2019-06-20T02:34:04.495Z,94705.73
2019-06-20T02:39:08.297Z,94709.02
2019-06-20T02:44:28.577Z,94709.52
2019-06-20T02:49:13.962Z,94713.61
2019-06-20T02:54:15.798Z,94718.35
2019-06-20T02:59:17.671Z,94723.88
2019-06-20T03:04:19.571Z,94722.84
2019-06-20T03:09:21.419Z,94729.91
2019-06-20T03:14:23.209Z,94732.89
2019-06-20T03:19:25.039Z,94730.53
2019-06-20T03:24:26.879Z,94722.84
2019-06-20T03:29:28.719Z,94725.43
2019-06-20T03:34:30.665Z,94730.92
2019-06-20T03:39:32.823Z,94716.81
2019-06-20T03:44:34.808Z,94715.81
2019-06-20T03:49:36.717Z,94717.55
2019-06-20T03:54:38.566Z,94717.77
2019-06-20T03:59:40.388Z,94720.20
2019-06-20T04:04:42.245Z,94731.12
2019-06-20T04:09:44.049Z,94729.87
2019-06-20T04:14:49.062Z,94725.92
2019-06-20T04:19:50.776Z,94720.31
2019-06-20T04:24:52.598Z,94710.91
2019-06-20T04:29:54.477Z,94709.25
2019-06-20T04:34:56.393Z,94710.36
2019-06-20T04:39:58.251Z,94708.22
2019-06-20T04:45:01.925Z,94713.13
2019-06-20T04:50:04.789Z,94700.14
2019-06-20T04:55:07.196Z,94704.23
2019-06-20T05:00:09.151Z,94713.13
2019-06-20T05:05:11.207Z,94714.67
2019-06-20T05:10:13.651Z,94710.97
2019-06-20T05:15:15.657Z,94706.64
2019-06-20T05:20:17.542Z,94691.17
2019-06-20T05:25:20.527Z,94691.17
2019-06-20T05:30:22.480Z,94713.25
2019-06-20T05:35:24.505Z,94719.70
2019-06-20T05:40:26.492Z,94720.31
2019-06-20T05:45:28.654Z,94723.76
2019-06-20T05:50:31.010Z,94720.05
2019-06-20T05:55:33.190Z,94718.53
2019-06-20T06:00:35.079Z,94723.73
2019-06-20T06:05:37.204Z,94732.78
2019-06-20T06:10:39.249Z,94735.16
2019-06-20T06:15:41.050Z,94734.13
2019-06-20T06:20:44.974Z,94737.78
2019-06-20T06:25:46.656Z,94734.59
2019-06-20T06:30:48.526Z,94736.84
2019-06-20T06:35:50.407Z,94729.66
2019-06-20T06:40:52.409Z,94729.66
2019-06-20T06:45:54.279Z,94733.34
2019-06-20T06:50:56.200Z,94727.14
2019-06-20T06:55:58.029Z,94724.98
2019-06-20T07:00:59.943Z,94719.47
2019-06-20T07:06:01.885Z,94711.30
2019-06-20T07:11:03.872Z,94714.64
2019-06-20T07:16:06.788Z,94713.80
2019-06-20T07:21:08.766Z,94706.45
2019-06-20T07:26:10.587Z,94703.91
2019-06-20T07:31:12.468Z,94700.61
2019-06-20T07:36:14.286Z,94696.41
2019-06-20T07:41:16.142Z,94691.42
2019-06-20T07:46:18.513Z,94689.52
2019-06-20T07:51:20.581Z,94687.85
2019-06-20T07:56:22.423Z,94689.67
2019-06-20T08:01:25.434Z,94682.70
2019-06-20T08:06:27.322Z,94681.16
2019-06-20T08:11:29.262Z,94680.64
2019-06-20T08:16:31.122Z,94680.90
2019-06-20T08:21:32.998Z,94680.02
2019-06-20T08:26:34.919Z,94670.73
2019-06-20T08:31:38.021Z,94670.18
2019-06-20T08:36:39.631Z,94667.04
2019-06-20T08:41:41.511Z,94665.37
2019-06-20T08:46:43.387Z,94660.11
2019-06-20T08:51:45.230Z,94663.80
2019-06-20T08:56:46.916Z,94657.59
2019-06-20T09:01:48.776Z,94653.59
2019-06-20T09:06:50.475Z,94647.75
2019-06-20T09:11:54.079Z,94646.55
2019-06-20T09:16:56.499Z,94649.94
2019-06-20T09:21:58.423Z,94645.37
2019-06-20T09:27:00.060Z,94636.61
2019-06-20T09:32:01.911Z,94633.38
2019-06-20T09:37:04.782Z,94633.38
2019-06-20T09:42:06.747Z,94638.70
2019-06-20T09:47:08.378Z,94643.13
2019-06-20T09:52:10.266Z,94638.52
2019-06-20T09:57:11.958Z,94640.48
2019-06-20T10:02:13.928Z,94647.14
2019-06-20T10:07:15.745Z,94643.20
2019-06-20T10:12:17.704Z,94650.98
2019-06-20T10:17:20.964Z,94650.70
2019-06-20T10:22:22.865Z,94653.97
2019-06-20T10:27:24.812Z,94650.17
2019-06-20T10:32:26.756Z,94648.39
2019-06-20T10:37:28.549Z,94643.58
2019-06-20T10:42:31.416Z,94652.73
2019-06-20T10:47:36.053Z,94625.42
2019-06-20T10:52:37.433Z,94630.05
2019-06-20T10:57:41.269Z,94620.87
2019-06-20T11:02:43.911Z,94621.42
2019-06-20T11:07:48.460Z,94620.61
2019-06-20T11:12:55.983Z,94626.25
2019-06-20T11:17:57.152Z,94660.78
2019-06-20T11:23:00.301Z,94669.28
2019-06-20T11:28:02.214Z,94685.72
2019-06-20T11:33:04.177Z,94687.73
2019-06-20T11:38:06.056Z,94699.03
2019-06-20T11:43:09.153Z,94704.41
2019-06-20T11:48:11.174Z,94717.96
2019-06-20T11:53:13.225Z,94717.34
2019-06-20T11:58:15.105Z,94711.78
2019-06-20T12:03:17.367Z,94716.12
2019-06-20T12:08:19.441Z,94723.04
2019-06-20T12:13:21.347Z,94710.63
2019-06-20T12:18:24.707Z,94669.80
2019-06-20T12:23:26.693Z,94679.77
2019-06-20T12:28:28.576Z,94686.36
2019-06-20T12:33:32.258Z,94693.22
2019-06-20T12:38:34.225Z,94721.78
2019-06-20T12:43:37.349Z,94726.02
2019-06-20T12:48:41.267Z,94713.15
2019-06-20T12:53:44.161Z,94708.63
2019-06-20T18:44:23.186Z,94685.44
2019-06-20T18:49:25.077Z,94700.61
2019-06-20T18:54:27.178Z,94706.82
2019-06-20T18:59:32.559Z,94721.70
2019-06-20T19:04:46.505Z,94727.88
2019-06-20T19:09:37.132Z,94737.59
2019-06-20T19:14:39.196Z,94749.33
2019-06-20T19:19:41.490Z,94774.91
2019-06-20T19:24:43.327Z,94773.17
2019-06-20T19:29:49.689Z,94781.95
2019-06-20T19:35:01.315Z,94783.43
2019-06-20T19:39:56.118Z,94794.71
2019-06-20T19:44:58.539Z,94800.53
2019-06-20T19:50:00.541Z,94815.28
2019-06-20T19:55:04.057Z,94820.98
2019-06-20T20:00:08.770Z,94818.92
2019-06-20T20:05:19.204Z,94811.59
2019-06-20T20:10:18.829Z,94816.76
2019-06-20T20:15:20.919Z,94820.91
2019-06-20T20:20:22.862Z,94819.53
2019-06-20T20:25:24.687Z,94814.89
2019-06-20T20:30:26.835Z,94822.84
2019-06-20T20:35:35.625Z,94812.74
2019-06-20T20:40:32.573Z,94806.88
2019-06-20T20:45:34.786Z,94806.88
2019-06-20T20:50:36.731Z,94801.05
2019-06-20T20:55:38.705Z,94797.74
2019-06-20T21:01:03.818Z,94796.50
2019-06-20T21:06:05.959Z,94791.50
2019-06-20T21:11:09.113Z,94800.51
2019-06-20T21:16:11.152Z,94805.93
2019-06-20T21:21:13.033Z,94808.52
2019-06-20T21:26:14.991Z,94807.47
2019-06-20T21:31:16.935Z,94798.52
2019-06-20T21:36:18.761Z,94799.36
2019-06-20T21:41:20.670Z,94798.24
2019-06-20T21:46:22.497Z,94796.31
2019-06-20T21:51:24.345Z,94787.68
2019-06-20T21:56:26.280Z,94776.98
2019-06-20T22:01:28.429Z,94781.78
2019-06-20T22:06:30.444Z,94790.11
2019-06-20T22:11:32.343Z,94796.92
2019-06-20T22:16:34.222Z,94798.74
2019-06-20T22:21:36.068Z,94800.49
2019-06-20T22:26:37.919Z,94804.08
2019-06-20T22:31:39.738Z,94814.14
2019-06-20T22:36:41.525Z,94819.08
2019-06-20T22:41:43.356Z,94833.40
2019-06-20T22:46:45.191Z,94835.36
2019-06-20T22:51:47.027Z,94834.98
2019-06-20T22:56:48.872Z,94828.41
2019-06-20T23:01:50.795Z,94826.99
2019-06-20T23:06:56.685Z,94826.19
2019-06-20T23:11:56.348Z,94821.77
2019-06-20T23:16:58.168Z,94809.22
2019-06-20T23:21:59.977Z,94795.11
2019-06-20T23:27:01.904Z,94801.70
2019-06-20T23:32:03.878Z,94793.13
2019-06-20T23:37:12.615Z,94791.50
2019-06-20T23:42:11.554Z,94792.52
2019-06-20T23:47:13.468Z,94787.55
2019-06-20T23:52:25.842Z,94778.95
2019-06-20T23:57:27.704Z,94788.96
